Weather at Port Lincoln Airport

Public forecast

Using degrees Celsius for public forecast. Weather courtesy of forecast.io.

Closest aviation weather report (METAR) to Port Lincoln Airport

Closest report is Whyalla Airport, 123.5 nm (228.8 km) NE. Retrieved 2021/01/25 22:30 UTC (0 seconds ago):

YWHA 252230Z AUTO 18013KT 9999 // OVC014 OVC020 20/18 Q1005

Closest aviation forecast (TAF) to Port Lincoln Airport

Forecast is more than 12 hours old.

Closest forecast is Whyalla Airport, 123.5 nm (228.8 km) NE. Retrieved 2018/11/15 18:03 UTC (2 years ago):

TAF YWHA 151701Z 1518/1608 VRB05KT CAVOK FM152300 18012KT CAVOK FM160200 18018KT CAVOK